createdAt,value
2022-08-26T00:01:55.722Z,12.83
2022-08-26T00:04:25.453Z,12.86
2022-08-26T00:06:53.922Z,12.93
2022-08-26T00:09:21.432Z,12.86
2022-08-26T00:11:48.596Z,12.83
2022-08-26T00:14:16.233Z,12.77
2022-08-26T00:16:47.826Z,12.77
2022-08-26T00:19:20.199Z,12.73
2022-08-26T00:21:50.379Z,12.75
2022-08-26T00:24:21.586Z,12.77
2022-08-26T00:26:49.302Z,12.74
2022-08-26T00:29:16.040Z,12.69
2022-08-26T00:31:45.300Z,12.65
2022-08-26T00:34:12.841Z,12.60
2022-08-26T00:36:40.926Z,12.51
2022-08-26T00:39:07.887Z,12.45
2022-08-26T00:41:39.973Z,12.42
2022-08-26T00:44:08.051Z,12.39
2022-08-26T00:46:47.267Z,12.32
2022-08-26T00:49:30.568Z,12.25
2022-08-26T00:52:03.576Z,12.25
2022-08-26T00:54:38.193Z,12.22
2022-08-26T00:57:16.752Z,12.10
2022-08-26T00:59:45.393Z,11.98
2022-08-26T01:02:20.164Z,12.01
2022-08-26T01:04:52.642Z,11.99
2022-08-26T01:07:23.460Z,11.93
2022-08-26T01:09:50.228Z,11.92
2022-08-26T01:12:17.207Z,11.90
2022-08-26T01:14:49.614Z,11.89
2022-08-26T01:17:16.475Z,11.88
2022-08-26T01:19:51.051Z,11.88
2022-08-26T01:23:03.336Z,11.86
2022-08-26T01:25:33.827Z,11.87
2022-08-26T01:28:07.876Z,11.89
2022-08-26T01:30:36.775Z,11.89
2022-08-26T01:33:08.027Z,11.88
2022-08-26T01:35:34.856Z,11.87
2022-08-26T01:38:02.332Z,11.75
2022-08-26T01:40:33.894Z,11.74
2022-08-26T01:43:02.342Z,11.72
2022-08-26T01:45:33.354Z,11.67
2022-08-26T01:48:04.584Z,11.63
2022-08-26T01:50:37.748Z,11.61
2022-08-26T01:53:09.762Z,11.56
2022-08-26T01:55:41.740Z,11.58
2022-08-26T01:58:26.444Z,11.56
2022-08-26T02:00:53.182Z,11.41
2022-08-26T02:03:22.388Z,11.42
2022-08-26T02:05:58.770Z,11.43
2022-08-26T02:08:34.896Z,11.39
2022-08-26T02:11:02.239Z,11.36
2022-08-26T02:13:31.642Z,11.33
2022-08-26T02:16:01.049Z,11.25
2022-08-26T02:18:30.466Z,11.24
2022-08-26T02:20:57.303Z,11.24
2022-08-26T02:23:24.715Z,11.27
2022-08-26T02:26:05.843Z,11.28
2022-08-26T02:28:38.871Z,11.27
2022-08-26T02:31:05.900Z,11.27
2022-08-26T02:33:34.780Z,11.25
2022-08-26T02:36:05.048Z,11.16
2022-08-26T02:38:34.836Z,11.14
2022-08-26T02:41:04.980Z,11.13
2022-08-26T02:43:34.789Z,11.11
2022-08-26T02:46:02.295Z,11.10
2022-08-26T02:48:30.293Z,10.98
2022-08-26T02:50:59.255Z,10.95
2022-08-26T02:53:28.051Z,10.95
2022-08-26T02:55:58.743Z,10.89
2022-08-26T02:58:26.519Z,10.89
2022-08-26T03:00:53.906Z,10.88
2022-08-26T03:03:23.504Z,10.81
2022-08-26T03:05:50.600Z,10.77
2022-08-26T03:08:18.083Z,10.69
2022-08-26T03:10:46.576Z,10.64
2022-08-26T03:13:15.614Z,10.63
2022-08-26T03:15:42.260Z,10.60
2022-08-26T03:18:09.571Z,10.60
2022-08-26T03:20:37.043Z,10.62
2022-08-26T03:23:03.730Z,10.58
2022-08-26T03:25:31.042Z,10.52
2022-08-26T03:27:57.724Z,10.48
2022-08-26T03:30:45.459Z,10.43
2022-08-26T03:33:13.753Z,10.36
2022-08-26T03:35:43.751Z,10.26
2022-08-26T03:38:10.964Z,10.25
2022-08-26T03:40:39.260Z,10.24
2022-08-26T03:43:09.826Z,10.15
2022-08-26T03:45:37.670Z,10.13
2022-08-26T03:48:05.093Z,10.13
2022-08-26T03:50:37.598Z,10.16
2022-08-26T03:53:07.503Z,10.14
2022-08-26T03:55:41.900Z,10.12
2022-08-26T03:58:12.062Z,10.11
2022-08-26T04:00:38.861Z,10.10
2022-08-26T04:03:05.920Z,10.07
2022-08-26T04:05:37.376Z,10.03
2022-08-26T04:08:06.232Z,10.00
2022-08-26T04:10:32.929Z,10.00
2022-08-26T04:13:02.589Z,9.95
2022-08-26T04:15:31.512Z,9.93
2022-08-26T04:17:58.329Z,9.99
2022-08-26T04:20:26.205Z,10.02
2022-08-26T04:22:52.974Z,10.02
2022-08-26T04:25:20.536Z,10.04
2022-08-26T04:27:47.466Z,10.05
2022-08-26T04:30:15.846Z,10.01
2022-08-26T04:32:43.521Z,9.99
2022-08-26T04:35:10.355Z,10.03
2022-08-26T04:37:37.556Z,10.01
2022-08-26T04:40:05.938Z,10.01
2022-08-26T04:42:33.484Z,10.04
2022-08-26T04:45:01.096Z,10.07
2022-08-26T04:47:32.105Z,10.08
2022-08-26T04:50:00.315Z,10.14
2022-08-26T04:52:28.997Z,10.22
2022-08-26T04:54:55.621Z,10.25
2022-08-26T04:57:23.380Z,10.30
2022-08-26T04:59:50.042Z,10.37
2022-08-26T05:02:16.775Z,10.42
2022-08-26T05:04:43.729Z,10.49
2022-08-26T05:07:10.847Z,10.33
2022-08-26T05:09:40.372Z,10.10
2022-08-26T05:12:07.404Z,10.26
2022-08-26T05:14:36.085Z,10.16
2022-08-26T05:17:04.730Z,10.25
2022-08-26T05:19:31.673Z,10.35
2022-08-26T05:22:02.120Z,10.31
2022-08-26T05:24:30.264Z,10.50
2022-08-26T05:26:57.335Z,10.58
2022-08-26T05:29:26.435Z,10.50
2022-08-26T05:31:53.523Z,10.68
2022-08-26T05:34:22.739Z,10.66
2022-08-26T05:36:52.688Z,10.78
2022-08-26T05:39:19.713Z,10.94
2022-08-26T05:41:46.448Z,11.03
2022-08-26T05:44:15.867Z,11.21
2022-08-26T05:46:44.830Z,11.32
2022-08-26T05:49:14.554Z,11.38
2022-08-26T05:51:45.251Z,11.52
2022-08-26T05:54:13.284Z,11.54
2022-08-26T05:56:40.104Z,11.73
2022-08-26T05:59:14.639Z,11.75
2022-08-26T06:01:42.628Z,11.86
2022-08-26T06:04:10.296Z,12.00
2022-08-26T06:06:41.238Z,12.02
2022-08-26T06:09:11.063Z,12.20
2022-08-26T06:11:38.914Z,12.17
2022-08-26T06:14:07.789Z,12.33
2022-08-26T06:16:38.694Z,12.50
2022-08-26T06:19:11.530Z,12.70
2022-08-26T06:21:40.467Z,12.89
2022-08-26T06:24:31.177Z,12.99
2022-08-26T06:27:04.360Z,13.23
2022-08-26T06:29:34.545Z,13.39
2022-08-26T06:32:03.876Z,13.53
2022-08-26T06:34:30.968Z,13.71
2022-08-26T06:37:01.952Z,13.80
2022-08-26T06:39:32.605Z,13.97
2022-08-26T06:42:00.416Z,14.18
2022-08-26T06:44:29.519Z,14.26
2022-08-26T06:46:56.168Z,14.32
2022-08-26T06:49:27.468Z,14.55
2022-08-26T06:52:00.340Z,14.52
2022-08-26T06:54:32.192Z,14.68
2022-08-26T06:56:59.105Z,14.78
2022-08-26T06:59:26.176Z,14.89
2022-08-26T07:01:53.500Z,15.06
2022-08-26T07:04:22.376Z,15.05
2022-08-26T07:06:52.666Z,15.26
2022-08-26T07:09:22.058Z,15.35
2022-08-26T07:11:49.801Z,15.44
2022-08-26T07:14:19.326Z,15.59
2022-08-26T07:16:48.420Z,15.59
2022-08-26T07:19:15.733Z,15.75
2022-08-26T07:21:44.348Z,15.76
2022-08-26T07:24:11.536Z,15.88
2022-08-26T07:26:42.836Z,16.03
2022-08-26T07:29:12.493Z,16.12
2022-08-26T07:31:42.750Z,16.24
2022-08-26T07:34:10.632Z,16.26
2022-08-26T07:36:37.310Z,16.35
2022-08-26T07:39:04.707Z,16.42
2022-08-26T07:41:31.463Z,16.43
2022-08-26T07:43:58.913Z,16.63
2022-08-26T07:46:27.513Z,16.60
2022-08-26T07:48:58.517Z,16.71
2022-08-26T07:51:28.073Z,16.77
2022-08-26T07:53:55.499Z,16.85
2022-08-26T07:56:23.454Z,17.07
2022-08-26T07:58:53.845Z,17.03
2022-08-26T08:01:23.988Z,17.13
2022-08-26T08:03:51.889Z,17.17
2022-08-26T08:06:20.128Z,17.20
2022-08-26T08:08:47.432Z,17.41
2022-08-26T08:11:14.757Z,17.42
2022-08-26T08:13:41.795Z,17.47
2022-08-26T08:16:12.447Z,17.61
2022-08-26T08:18:42.253Z,17.51
2022-08-26T08:21:21.350Z,17.60
2022-08-26T08:23:51.909Z,17.72
2022-08-26T08:26:18.884Z,17.64
2022-08-26T08:28:48.803Z,17.75
2022-08-26T08:34:21.465Z,17.73
2022-08-26T08:36:49.023Z,17.88
2022-08-26T08:39:19.219Z,18.01
2022-08-26T08:42:11.848Z,17.86
2022-08-26T08:44:51.925Z,18.01
2022-08-26T08:47:48.296Z,18.21
2022-08-26T08:50:48.113Z,18.09
2022-08-26T08:53:30.913Z,18.21
2022-08-26T08:56:24.832Z,18.41
2022-08-26T08:58:57.449Z,18.33
2022-08-26T09:01:45.036Z,18.37
2022-08-26T09:04:37.480Z,18.52
2022-08-26T09:07:08.876Z,18.70
2022-08-26T09:09:41.842Z,18.69
2022-08-26T09:12:14.952Z,18.75
2022-08-26T09:14:45.821Z,18.92
2022-08-26T09:17:35.605Z,19.11
2022-08-26T09:20:25.983Z,19.14
2022-08-26T09:22:53.280Z,19.09
2022-08-26T09:25:22.286Z,19.20
2022-08-26T09:27:53.491Z,19.35
2022-08-26T09:30:35.358Z,19.41
2022-08-26T09:33:11.587Z,19.43
2022-08-26T09:35:41.240Z,19.17
2022-08-26T09:38:28.011Z,19.32
2022-08-26T09:41:01.803Z,19.45
2022-08-26T09:43:29.291Z,19.57
2022-08-26T09:46:15.300Z,19.71
2022-08-26T09:48:43.300Z,19.91
2022-08-26T09:51:26.514Z,19.96
2022-08-26T09:53:59.023Z,20.04
2022-08-26T09:56:34.760Z,20.20
2022-08-26T09:59:02.952Z,20.22
2022-08-26T10:01:42.175Z,20.27
2022-08-26T10:04:14.088Z,20.17
2022-08-26T10:06:57.240Z,20.18
2022-08-26T10:09:25.887Z,20.22
2022-08-26T10:11:59.119Z,20.33
2022-08-26T10:14:37.544Z,20.45
2022-08-26T10:17:14.570Z,20.33
2022-08-26T10:19:57.091Z,20.29
2022-08-26T10:22:50.155Z,20.39
2022-08-26T10:25:24.621Z,20.36
2022-08-26T10:28:19.520Z,20.42
2022-08-26T10:31:04.619Z,20.28
2022-08-26T10:33:33.638Z,20.18
2022-08-26T10:36:06.499Z,20.09
2022-08-26T10:38:37.742Z,19.65
2022-08-26T10:41:24.351Z,19.75
2022-08-26T10:43:56.401Z,19.90
2022-08-26T10:46:31.379Z,19.97
2022-08-26T10:49:06.960Z,20.03
2022-08-26T10:51:51.655Z,20.09
2022-08-26T10:54:40.817Z,20.17
2022-08-26T10:57:25.612Z,20.21
2022-08-26T11:00:34.993Z,20.37
2022-08-26T11:03:32.655Z,20.39
2022-08-26T11:06:21.779Z,20.47
2022-08-26T11:08:54.209Z,20.51
2022-08-26T11:11:40.792Z,20.50
2022-08-26T11:14:10.971Z,20.57
2022-08-26T11:16:42.850Z,20.68
2022-08-26T11:19:45.653Z,20.74
2022-08-26T11:22:31.246Z,20.75
2022-08-26T11:24:57.948Z,20.79
2022-08-26T11:27:26.032Z,20.60
2022-08-26T11:30:14.089Z,20.63
2022-08-26T11:32:41.253Z,20.59
2022-08-26T11:35:17.112Z,20.53
2022-08-26T11:38:04.287Z,20.71
2022-08-26T11:40:33.697Z,20.58
2022-08-26T11:43:12.289Z,20.68
2022-08-26T11:45:42.493Z,20.82
2022-08-26T11:48:28.289Z,20.63
2022-08-26T11:51:09.859Z,20.75
2022-08-26T11:53:40.876Z,20.80
2022-08-26T11:56:26.088Z,20.59
2022-08-26T11:58:58.357Z,20.71
2022-08-26T12:01:31.410Z,20.84
2022-08-26T12:03:59.728Z,20.69
2022-08-26T12:06:44.983Z,20.79
2022-08-26T12:09:21.181Z,20.68
2022-08-26T12:11:48.048Z,20.51
2022-08-26T12:14:27.698Z,20.56
2022-08-26T12:16:54.888Z,20.62
2022-08-26T12:19:27.449Z,20.53
2022-08-26T12:22:06.688Z,20.71
2022-08-26T12:24:33.629Z,20.87
2022-08-26T12:27:14.438Z,20.81
2022-08-26T12:29:43.700Z,20.94
2022-08-26T12:32:18.436Z,20.99
2022-08-26T12:34:49.128Z,20.81
2022-08-26T12:37:16.305Z,20.88
2022-08-26T12:39:45.807Z,21.03
2022-08-26T12:42:12.359Z,20.87
2022-08-26T12:44:54.207Z,20.91
2022-08-26T12:47:35.149Z,20.97
2022-08-26T12:50:19.626Z,20.90
2022-08-26T12:53:09.722Z,21.06
2022-08-26T12:55:41.174Z,21.04
2022-08-26T12:58:16.674Z,20.97
2022-08-26T13:00:56.617Z,21.15
2022-08-26T13:03:35.268Z,21.03
2022-08-26T13:06:16.031Z,20.91
2022-08-26T13:08:55.195Z,20.99
2022-08-26T13:11:31.586Z,20.79
2022-08-26T13:14:06.947Z,20.60
2022-08-26T13:16:34.938Z,20.77
2022-08-26T13:19:10.467Z,20.83
2022-08-26T13:21:58.484Z,20.57
2022-08-26T13:24:35.641Z,20.73
2022-08-26T13:27:03.501Z,20.81
2022-08-26T13:29:30.184Z,20.59
2022-08-26T13:31:58.231Z,20.68
2022-08-26T13:34:25.280Z,20.82
2022-08-26T13:36:55.250Z,20.68
2022-08-26T13:39:22.911Z,20.64
2022-08-26T13:41:50.017Z,20.75
2022-08-26T13:44:17.223Z,20.58
2022-08-26T13:49:12.373Z,20.77
2022-08-26T13:51:39.971Z,20.71
2022-08-26T13:54:07.314Z,20.85
2022-08-26T13:56:34.956Z,20.68
2022-08-26T13:59:03.184Z,20.81
2022-08-26T14:01:31.443Z,20.78
2022-08-26T14:03:58.453Z,20.75
2022-08-26T14:06:25.661Z,20.96
2022-08-26T14:08:52.337Z,20.81
2022-08-26T14:11:21.473Z,20.87
2022-08-26T14:13:48.209Z,20.94
2022-08-26T14:16:25.941Z,20.86
2022-08-26T14:18:53.566Z,21.07
2022-08-26T14:21:20.940Z,20.90
2022-08-26T14:23:47.824Z,21.01
2022-08-26T14:26:28.747Z,20.95
2022-08-26T14:29:00.039Z,20.88
2022-08-26T14:31:29.427Z,21.04
2022-08-26T14:34:00.176Z,20.95
2022-08-26T14:36:31.955Z,20.98
2022-08-26T14:39:11.589Z,20.95
2022-08-26T14:41:53.709Z,20.87
2022-08-26T14:44:33.277Z,21.08
2022-08-26T14:47:02.441Z,21.25
2022-08-26T14:49:31.808Z,21.54
2022-08-26T14:51:59.477Z,21.89
2022-08-26T14:54:26.107Z,21.92
2022-08-26T14:56:59.428Z,21.78
2022-08-26T14:59:29.460Z,21.88
2022-08-26T15:01:59.236Z,21.56
2022-08-26T15:04:28.451Z,21.65
2022-08-26T15:06:56.868Z,21.84
2022-08-26T15:09:24.480Z,21.70
2022-08-26T15:11:53.110Z,21.50
2022-08-26T15:14:21.213Z,21.68
2022-08-26T15:16:55.882Z,21.68
2022-08-26T15:19:24.476Z,21.34
2022-08-26T15:21:51.972Z,21.47
2022-08-26T15:24:21.020Z,21.55
2022-08-26T15:26:48.377Z,21.22
2022-08-26T15:29:15.435Z,21.29
2022-08-26T15:31:43.132Z,21.54
2022-08-26T15:34:16.015Z,21.86
2022-08-26T15:36:45.018Z,21.58
2022-08-26T15:39:11.954Z,21.54
2022-08-26T15:41:38.863Z,21.69
2022-08-26T15:44:07.332Z,21.85
2022-08-26T15:46:35.056Z,21.95
2022-08-26T15:49:03.796Z,21.97
2022-08-26T15:51:45.408Z,21.89
2022-08-26T15:54:14.054Z,21.79
2022-08-26T15:56:40.724Z,21.81
2022-08-26T15:59:11.402Z,21.83
2022-08-26T16:01:41.312Z,21.80
2022-08-26T16:04:07.957Z,21.77
2022-08-26T16:06:37.048Z,21.70
2022-08-26T16:09:04.941Z,21.68
2022-08-26T16:11:31.564Z,21.76
2022-08-26T16:13:58.451Z,21.77
2022-08-26T16:16:25.117Z,21.73
2022-08-26T16:18:52.328Z,21.64
2022-08-26T16:21:22.176Z,21.69
2022-08-26T16:23:48.884Z,21.65
2022-08-26T16:26:23.939Z,21.63
2022-08-26T16:28:50.632Z,21.55
2022-08-26T16:31:19.508Z,21.53
2022-08-26T16:33:46.326Z,21.50
2022-08-26T16:36:14.148Z,21.45
2022-08-26T16:38:41.737Z,21.29
2022-08-26T16:41:08.637Z,21.27
2022-08-26T16:43:35.716Z,21.33
2022-08-26T16:46:04.928Z,21.34
2022-08-26T16:48:31.639Z,21.30
2022-08-26T16:51:00.460Z,21.28
2022-08-26T16:53:27.086Z,21.19
2022-08-26T16:55:53.728Z,21.14
2022-08-26T16:58:22.090Z,21.06
2022-08-26T17:00:49.197Z,21.03
2022-08-26T17:03:16.031Z,21.01
2022-08-26T17:05:45.132Z,20.96
2022-08-26T17:08:14.524Z,20.96
2022-08-26T17:10:51.774Z,20.85
2022-08-26T17:13:35.108Z,20.50
2022-08-26T17:16:04.982Z,19.94
2022-08-26T17:18:33.507Z,20.07
2022-08-26T17:21:03.195Z,19.99
2022-08-26T17:23:29.961Z,19.74
2022-08-26T17:25:56.828Z,19.86
2022-08-26T17:28:23.472Z,19.89
2022-08-26T17:30:50.195Z,19.79
2022-08-26T17:33:17.267Z,19.50
2022-08-26T17:35:48.897Z,19.57
2022-08-26T17:38:15.555Z,19.70
2022-08-26T17:40:42.262Z,19.70
2022-08-26T17:43:12.170Z,19.39
2022-08-26T17:45:40.501Z,19.01
2022-08-26T17:48:08.264Z,19.16
2022-08-26T17:50:35.785Z,19.24
2022-08-26T17:53:02.523Z,19.30
2022-08-26T17:55:29.263Z,18.96
2022-08-26T17:57:55.999Z,19.03
2022-08-26T18:00:26.608Z,19.16
2022-08-26T18:02:54.812Z,19.23
2022-08-26T18:05:22.385Z,19.25
2022-08-26T18:07:51.488Z,18.81
2022-08-26T18:10:20.369Z,18.61
2022-08-26T18:12:47.544Z,18.73
2022-08-26T18:15:16.515Z,18.82
2022-08-26T18:17:44.024Z,18.87
2022-08-26T18:20:15.413Z,18.86
2022-08-26T18:22:43.411Z,18.41
2022-08-26T18:25:10.316Z,18.42
2022-08-26T18:27:38.012Z,18.56
2022-08-26T18:30:11.350Z,18.35
2022-08-26T18:32:42.217Z,17.89
2022-08-26T18:35:09.608Z,17.99
2022-08-26T18:37:36.351Z,18.12
2022-08-26T18:40:04.835Z,18.26
2022-08-26T18:42:31.579Z,18.38
2022-08-26T18:44:58.328Z,18.48
2022-08-26T18:47:24.995Z,18.51
2022-08-26T18:49:51.632Z,18.51
2022-08-26T18:52:19.985Z,18.50
2022-08-26T18:54:46.795Z,18.52
2022-08-26T18:57:15.755Z,18.54
2022-08-26T18:59:42.414Z,18.58
2022-08-26T19:02:09.833Z,18.60
2022-08-26T19:04:38.709Z,18.59
2022-08-26T19:07:06.284Z,18.58
2022-08-26T19:09:33.423Z,18.59
2022-08-26T19:12:01.618Z,18.60
2022-08-26T19:14:28.699Z,18.61
2022-08-26T19:16:55.746Z,18.63
2022-08-26T19:19:25.786Z,18.66
2022-08-26T19:21:53.161Z,18.68
2022-08-26T19:24:20.575Z,18.67
2022-08-26T19:26:58.632Z,18.62
2022-08-26T19:29:28.894Z,18.63
2022-08-26T19:31:55.941Z,18.63
2022-08-26T19:34:22.945Z,18.64
2022-08-26T19:36:51.884Z,18.67
2022-08-26T19:39:19.114Z,18.71
2022-08-26T19:41:46.153Z,18.72
2022-08-26T19:44:35.860Z,18.78
2022-08-26T19:47:03.839Z,18.80
2022-08-26T19:49:32.204Z,18.79
2022-08-26T19:51:59.647Z,18.77
2022-08-26T19:54:27.357Z,18.74
2022-08-26T19:56:54.755Z,18.78
2022-08-26T19:59:21.442Z,18.76
2022-08-26T20:02:00.466Z,18.76
2022-08-26T20:04:30.180Z,18.72
2022-08-26T20:07:00.364Z,18.70
2022-08-26T20:09:30.840Z,18.68
2022-08-26T20:11:57.516Z,18.71
2022-08-26T20:14:25.605Z,18.73
2022-08-26T20:16:52.327Z,18.77
2022-08-26T20:19:38.627Z,18.78
2022-08-26T20:22:05.787Z,18.76
2022-08-26T20:24:33.434Z,18.79
2022-08-26T20:27:03.246Z,18.77
2022-08-26T20:29:32.708Z,18.71
2022-08-26T20:31:59.418Z,18.66
2022-08-26T20:34:26.467Z,18.66
2022-08-26T20:36:53.198Z,18.70
2022-08-26T20:39:21.192Z,18.67
2022-08-26T20:41:48.599Z,18.68
2022-08-26T20:44:16.725Z,18.71
2022-08-26T20:46:43.928Z,18.72
2022-08-26T20:49:10.884Z,18.73
2022-08-26T20:51:38.827Z,18.71
2022-08-26T20:54:07.128Z,18.68
2022-08-26T20:56:34.640Z,18.73
2022-08-26T20:59:02.495Z,18.76
2022-08-26T21:01:34.627Z,18.77
2022-08-26T21:04:04.535Z,18.79
2022-08-26T21:06:33.881Z,18.81
2022-08-26T21:09:01.676Z,18.85
2022-08-26T21:11:29.246Z,18.84
2022-08-26T21:14:06.990Z,18.80
2022-08-26T21:16:44.111Z,18.72
2022-08-26T21:19:13.900Z,18.68
2022-08-26T21:21:42.827Z,18.68
2022-08-26T21:24:09.675Z,18.67
2022-08-26T21:26:37.071Z,18.68
2022-08-26T21:29:04.303Z,18.72
2022-08-26T21:31:32.203Z,18.72
2022-08-26T21:33:59.898Z,18.75
2022-08-26T21:36:26.852Z,18.77
2022-08-26T21:38:56.788Z,18.76
2022-08-26T21:41:23.946Z,18.70
2022-08-26T21:43:55.692Z,18.61
2022-08-26T21:46:24.709Z,18.58
2022-08-26T21:48:55.223Z,18.56
2022-08-26T21:51:24.616Z,18.59
2022-08-26T21:53:53.027Z,18.64
2022-08-26T21:56:21.159Z,18.58
2022-08-26T21:58:47.915Z,18.50
2022-08-26T22:01:18.069Z,18.42
2022-08-26T22:03:47.432Z,18.40
2022-08-26T22:06:20.760Z,18.36
2022-08-26T22:08:47.672Z,18.30
2022-08-26T22:11:15.644Z,18.22
2022-08-26T22:13:43.767Z,18.00
2022-08-26T22:16:10.603Z,17.90
2022-08-26T22:18:38.945Z,17.74
2022-08-26T22:21:08.769Z,17.54
2022-08-26T22:23:36.863Z,17.50
2022-08-26T22:26:07.864Z,17.47
2022-08-26T22:28:35.622Z,17.42
2022-08-26T22:31:04.836Z,17.44
2022-08-26T22:33:31.512Z,17.45
2022-08-26T22:35:58.108Z,17.40
2022-08-26T22:38:24.992Z,17.43
2022-08-26T22:40:56.072Z,17.44
2022-08-26T22:43:24.826Z,17.50
2022-08-26T22:45:53.170Z,17.50
2022-08-26T22:48:23.828Z,17.50
2022-08-26T22:50:59.577Z,17.44
2022-08-26T22:53:26.847Z,17.42
2022-08-26T22:55:54.287Z,17.39
2022-08-26T22:58:21.652Z,17.37
2022-08-26T23:00:57.844Z,17.40
2022-08-26T23:03:26.775Z,17.42
2022-08-26T23:05:53.704Z,17.44
2022-08-26T23:08:21.012Z,17.48
2022-08-26T23:10:49.380Z,17.46
2022-08-26T23:13:16.577Z,17.41
2022-08-26T23:15:44.779Z,17.39
2022-08-26T23:18:12.836Z,17.40
2022-08-26T23:20:40.200Z,17.39
2022-08-26T23:23:07.512Z,17.36
2022-08-26T23:25:34.424Z,17.36
2022-08-26T23:28:02.691Z,17.36
2022-08-26T23:30:31.508Z,17.34
2022-08-26T23:32:58.625Z,17.34
2022-08-26T23:35:25.920Z,17.35
2022-08-26T23:37:53.460Z,17.40
2022-08-26T23:40:27.979Z,17.46
2022-08-26T23:42:56.637Z,17.46
2022-08-26T23:45:27.159Z,17.39
2022-08-26T23:47:54.621Z,17.48
2022-08-26T23:50:49.984Z,17.48
2022-08-26T23:53:21.191Z,17.43
2022-08-26T23:55:50.797Z,17.46
2022-08-26T23:58:19.068Z,17.45
